createdAt,value
2022-12-04T00:01:16.695Z,96.03
2022-12-04T00:03:43.318Z,76.07
2022-12-04T00:06:17.912Z,78.90
2022-12-04T00:11:13.836Z,87.55
2022-12-04T00:13:42.239Z,75.85
2022-12-04T00:16:15.596Z,83.30
2022-12-04T00:18:42.356Z,92.13
2022-12-04T00:21:11.870Z,88.80
2022-12-04T00:23:39.409Z,86.38
2022-12-04T00:26:08.565Z,89.22
2022-12-04T00:28:35.948Z,86.97
2022-12-04T00:31:06.940Z,76.07
2022-12-04T00:33:33.867Z,83.32
2022-12-04T00:36:02.747Z,85.22
2022-12-04T00:38:29.636Z,83.90
2022-12-04T00:40:56.497Z,82.35
2022-12-04T00:43:24.177Z,85.72
2022-12-04T00:45:50.892Z,82.68
2022-12-04T00:48:17.687Z,82.65
2022-12-04T00:50:44.753Z,51.83
2022-12-04T00:53:12.370Z,84.07
2022-12-04T00:55:42.912Z,79.90
2022-12-04T00:58:11.086Z,86.57
2022-12-04T01:00:39.599Z,96.82
2022-12-04T01:03:07.683Z,77.93
2022-12-04T01:05:42.450Z,90.72
2022-12-04T01:10:38.982Z,84.80
2022-12-04T01:13:05.990Z,85.63
2022-12-04T01:15:32.666Z,86.82
2022-12-04T01:17:59.603Z,89.82
2022-12-04T01:20:26.222Z,91.22
2022-12-04T01:22:53.212Z,75.15
2022-12-04T01:25:19.912Z,84.72
2022-12-04T01:27:46.658Z,103.30
2022-12-04T01:30:13.550Z,100.70
2022-12-04T01:32:40.214Z,85.70
2022-12-04T01:35:07.181Z,81.25
2022-12-04T01:37:33.850Z,101.35
2022-12-04T01:40:00.567Z,76.13
2022-12-04T01:42:27.443Z,108.82
2022-12-04T01:45:28.166Z,93.65
2022-12-04T01:47:58.379Z,94.88
2022-12-04T01:50:25.218Z,92.70
2022-12-04T01:52:52.074Z,81.45
2022-12-04T01:55:18.946Z,88.88
2022-12-04T01:57:46.728Z,88.75
2022-12-04T02:00:15.915Z,76.68
2022-12-04T02:02:46.594Z,95.78
2022-12-04T02:05:17.212Z,92.57
2022-12-04T02:07:46.448Z,87.63
2022-12-04T02:10:14.731Z,80.88
2022-12-04T02:13:07.499Z,87.53
2022-12-04T02:16:01.498Z,97.93
2022-12-04T02:18:40.344Z,94.15
2022-12-04T02:21:19.469Z,105.53
2022-12-04T02:24:10.439Z,99.22
2022-12-04T02:26:47.639Z,98.20
2022-12-04T02:29:26.264Z,99.05
2022-12-04T02:32:20.073Z,91.03
2022-12-04T02:34:58.431Z,80.68
2022-12-04T02:37:35.464Z,89.47
2022-12-04T02:40:05.946Z,103.28
2022-12-04T02:42:49.677Z,105.05
2022-12-04T02:45:24.800Z,96.97
2022-12-04T02:47:53.454Z,79.22
2022-12-04T02:50:23.261Z,70.13
2022-12-04T02:52:57.643Z,99.75
2022-12-04T02:55:30.522Z,110.00
2022-12-04T02:58:02.747Z,94.03
2022-12-04T03:00:30.737Z,108.80
2022-12-04T03:03:04.129Z,95.97
2022-12-04T03:05:36.971Z,103.13
2022-12-04T03:08:14.223Z,106.22
2022-12-04T03:10:46.955Z,102.53
2022-12-04T03:13:21.897Z,78.25
2022-12-04T03:15:53.998Z,93.28
2022-12-04T03:18:29.806Z,106.10
2022-12-04T03:21:08.266Z,70.13
2022-12-04T03:23:44.267Z,97.53
2022-12-04T03:26:15.375Z,100.80
2022-12-04T03:28:55.748Z,91.15
2022-12-04T03:31:36.615Z,61.45
2022-12-04T03:34:06.331Z,95.68
2022-12-04T03:36:39.891Z,102.57
2022-12-04T03:39:36.617Z,85.22
2022-12-04T03:42:17.873Z,85.90
2022-12-04T03:44:49.062Z,94.20
2022-12-04T03:47:28.977Z,90.20
2022-12-04T03:50:10.338Z,99.05
2022-12-04T03:52:51.002Z,95.88
2022-12-04T03:55:47.447Z,95.45
2022-12-04T03:58:21.201Z,102.53
2022-12-04T04:00:52.555Z,102.47
2022-12-04T04:03:24.049Z,100.68
2022-12-04T04:05:55.467Z,105.60
2022-12-04T04:08:27.616Z,77.57
2022-12-04T04:11:02.914Z,99.28
2022-12-04T04:13:56.775Z,107.30
2022-12-04T04:16:45.979Z,104.85
2022-12-04T04:19:50.626Z,70.40
2022-12-04T04:22:37.958Z,93.97
2022-12-04T04:25:09.918Z,56.53
2022-12-04T04:27:36.552Z,88.38
2022-12-04T04:30:05.516Z,94.38
2022-12-04T04:32:45.051Z,98.40
2022-12-04T04:35:25.220Z,99.32
2022-12-04T04:38:16.463Z,105.45
2022-12-04T04:41:11.874Z,95.63
2022-12-04T04:46:25.194Z,105.55
2022-12-04T04:48:56.285Z,76.20
2022-12-04T04:51:23.613Z,106.15
2022-12-04T04:53:53.955Z,89.90
2022-12-04T04:56:21.271Z,96.40
2022-12-04T04:58:47.893Z,51.83
2022-12-04T05:01:19.472Z,84.38
2022-12-04T05:03:46.389Z,105.65
2022-12-04T05:06:13.677Z,97.65
2022-12-04T05:08:40.425Z,73.30
2022-12-04T05:11:11.198Z,99.03
2022-12-04T05:13:37.823Z,91.30
2022-12-04T05:16:08.160Z,90.63
2022-12-04T05:18:35.403Z,105.28
2022-12-04T05:21:09.529Z,91.85
2022-12-04T05:23:36.185Z,104.03
2022-12-04T05:26:05.092Z,87.60
2022-12-04T05:28:31.755Z,102.32
2022-12-04T05:31:01.316Z,106.22
2022-12-04T05:33:28.717Z,90.82
2022-12-04T05:36:05.984Z,68.25
2022-12-04T05:38:32.925Z,97.95
2022-12-04T05:41:00.285Z,98.53
2022-12-04T05:43:27.514Z,99.45
2022-12-04T05:45:54.537Z,101.93
2022-12-04T05:48:21.225Z,80.13
2022-12-04T05:50:47.770Z,98.93
2022-12-04T05:53:14.357Z,103.53
2022-12-04T05:55:40.982Z,70.15
2022-12-04T05:58:07.742Z,88.18
2022-12-04T06:00:34.301Z,82.85
2022-12-04T06:03:00.954Z,97.90
2022-12-04T06:05:27.637Z,96.15
2022-12-04T06:07:54.323Z,101.78
2022-12-04T06:10:28.052Z,98.60
2022-12-04T06:12:57.657Z,83.37
2022-12-04T06:15:24.771Z,89.50
2022-12-04T06:17:51.363Z,84.15
2022-12-04T06:20:18.152Z,97.78
2022-12-04T06:22:44.778Z,92.75
2022-12-04T06:25:11.384Z,95.72
2022-12-04T06:27:37.982Z,98.75
2022-12-04T06:30:05.162Z,56.97
2022-12-04T06:32:31.795Z,102.03
2022-12-04T06:34:58.467Z,93.43
2022-12-04T06:37:25.448Z,103.20
2022-12-04T06:39:52.087Z,109.28
2022-12-04T06:42:18.850Z,93.70
2022-12-04T06:44:45.443Z,108.93
2022-12-04T06:47:12.066Z,106.75
2022-12-04T06:49:38.846Z,100.55
2022-12-04T06:52:05.479Z,92.03
2022-12-04T06:54:32.186Z,109.78
2022-12-04T06:56:58.817Z,101.53
2022-12-04T06:59:25.561Z,104.72
2022-12-04T07:01:52.228Z,86.60
2022-12-04T07:04:18.930Z,97.28
2022-12-04T07:06:45.576Z,101.35
2022-12-04T07:09:16.029Z,90.72
2022-12-04T07:11:44.792Z,105.88
2022-12-04T07:14:13.040Z,94.60
2022-12-04T07:16:41.983Z,85.38
2022-12-04T07:19:11.041Z,97.25
2022-12-04T07:21:37.961Z,102.00
2022-12-04T07:24:05.018Z,106.93
2022-12-04T07:26:31.757Z,101.53
2022-12-04T07:28:59.376Z,96.97
2022-12-04T07:31:28.121Z,84.45
2022-12-04T07:33:55.643Z,111.28
2022-12-04T07:36:23.656Z,72.05
2022-12-04T07:38:51.169Z,95.45
2022-12-04T07:41:18.748Z,80.38
2022-12-04T07:43:45.927Z,96.47
2022-12-04T07:46:18.705Z,91.85
2022-12-04T07:48:45.349Z,85.05
2022-12-04T07:51:14.727Z,83.18
2022-12-04T07:53:42.310Z,68.55
2022-12-04T07:56:10.548Z,86.00
2022-12-04T07:58:37.320Z,86.78
2022-12-04T08:01:14.884Z,95.68
2022-12-04T08:03:47.694Z,82.82
2022-12-04T08:06:17.063Z,96.90
2022-12-04T08:08:43.811Z,91.53
2022-12-04T08:11:12.340Z,101.90
2022-12-04T08:13:39.363Z,93.32
2022-12-04T08:16:08.015Z,80.68
2022-12-04T08:18:34.849Z,63.22
2022-12-04T08:21:12.574Z,96.38
2022-12-04T08:23:40.923Z,89.30
2022-12-04T08:26:08.332Z,67.57
2022-12-04T08:28:36.075Z,87.95
2022-12-04T08:31:08.525Z,87.85
2022-12-04T08:33:35.510Z,81.55
2022-12-04T08:36:05.375Z,88.10
2022-12-04T08:38:31.983Z,80.05
2022-12-04T08:41:02.868Z,62.05
2022-12-04T08:43:30.395Z,87.63
2022-12-04T08:45:59.223Z,55.38
2022-12-04T08:48:26.420Z,97.03
2022-12-04T08:50:53.531Z,80.07
2022-12-04T08:53:20.505Z,89.13
2022-12-04T08:55:47.347Z,88.38
2022-12-04T08:58:14.225Z,85.82
2022-12-04T09:00:40.994Z,65.90
2022-12-04T09:03:07.694Z,62.42
2022-12-04T09:05:34.461Z,87.40
2022-12-04T09:08:01.081Z,95.15
2022-12-04T09:10:27.804Z,80.85
2022-12-04T09:12:54.432Z,63.72
2022-12-04T09:15:21.071Z,101.15
2022-12-04T09:17:47.635Z,79.72
2022-12-04T09:20:15.096Z,87.40
2022-12-04T09:23:02.886Z,88.05
2022-12-04T09:25:31.562Z,81.22
2022-12-04T09:27:58.331Z,82.72
2022-12-04T09:30:24.882Z,92.78
2022-12-04T09:32:51.517Z,72.55
2022-12-04T09:35:18.223Z,80.68
2022-12-04T09:37:44.915Z,79.88
2022-12-04T09:40:37.113Z,84.50
2022-12-04T09:43:22.654Z,80.05
2022-12-04T09:45:53.544Z,85.88
2022-12-04T09:48:32.586Z,91.63
2022-12-04T09:51:01.594Z,83.60
2022-12-04T09:53:36.158Z,82.18
2022-12-04T09:58:51.895Z,83.10
2022-12-04T10:01:30.980Z,80.50
2022-12-04T10:04:04.235Z,62.75
2022-12-04T10:06:42.986Z,87.72
2022-12-04T10:09:48.660Z,84.28
2022-12-04T10:15:07.438Z,84.95
2022-12-04T10:17:54.389Z,62.13
2022-12-04T10:20:56.953Z,77.28
2022-12-04T10:23:45.462Z,80.85
2022-12-04T10:26:17.519Z,69.38
2022-12-04T10:28:55.251Z,70.10
2022-12-04T10:31:23.004Z,92.25
2022-12-04T10:34:03.041Z,79.10
2022-12-04T10:36:33.656Z,82.72
2022-12-04T10:39:30.890Z,72.50
2022-12-04T10:42:31.657Z,77.10
2022-12-04T10:44:58.257Z,78.13
2022-12-04T10:47:25.342Z,72.07
2022-12-04T10:49:59.673Z,70.28
2022-12-04T10:52:26.788Z,76.88
2022-12-04T10:55:02.363Z,83.35
2022-12-04T10:57:41.067Z,79.25
2022-12-04T11:00:26.971Z,87.63
2022-12-04T11:02:55.188Z,80.70
2022-12-04T11:05:45.964Z,79.60
2022-12-04T11:08:26.686Z,62.13
2022-12-04T11:11:00.208Z,70.00
2022-12-04T11:13:26.830Z,79.03
2022-12-04T11:15:55.931Z,68.32
2022-12-04T11:18:22.457Z,73.68
2022-12-04T11:21:03.214Z,64.28
2022-12-04T11:23:42.201Z,76.32
2022-12-04T11:26:09.699Z,66.63
2022-12-04T11:28:42.432Z,51.92
2022-12-04T11:31:16.379Z,63.80
2022-12-04T11:33:47.150Z,59.72
2022-12-04T11:36:19.872Z,62.40
2022-12-04T11:38:46.933Z,64.55
2022-12-04T11:41:30.873Z,61.85
2022-12-04T11:44:00.162Z,54.95
2022-12-04T11:46:33.953Z,56.33
2022-12-04T11:49:02.878Z,57.10
2022-12-04T11:51:53.395Z,62.70
2022-12-04T11:54:37.685Z,59.05
2022-12-04T11:57:29.904Z,53.78
2022-12-04T12:00:11.894Z,47.33
2022-12-04T12:03:05.771Z,53.38
2022-12-04T12:05:32.478Z,52.53
2022-12-04T12:08:20.314Z,51.47
2022-12-04T12:11:05.194Z,61.58
2022-12-04T12:14:06.597Z,57.85
2022-12-04T12:16:36.015Z,65.47
2022-12-04T12:19:33.717Z,56.35
2022-12-04T12:22:12.579Z,61.97
2022-12-04T12:25:03.054Z,59.35
2022-12-04T12:27:37.773Z,54.55
2022-12-04T12:30:28.262Z,61.70
2022-12-04T12:33:07.828Z,59.13
2022-12-04T12:35:36.662Z,54.13
2022-12-04T12:38:17.425Z,51.33
2022-12-04T12:40:50.820Z,40.00
2022-12-04T12:43:32.643Z,49.92
2022-12-04T12:46:06.487Z,44.72
2022-12-04T12:48:56.522Z,45.47
2022-12-04T12:51:38.719Z,43.92
2022-12-04T12:54:20.526Z,47.05
2022-12-04T12:56:53.587Z,43.53
2022-12-04T12:59:25.374Z,42.78
2022-12-04T13:02:02.320Z,54.58
2022-12-04T13:04:43.130Z,53.33
2022-12-04T13:07:19.784Z,45.55
2022-12-04T13:10:07.699Z,53.33
2022-12-04T13:12:57.213Z,44.67
2022-12-04T13:15:32.573Z,37.83
2022-12-04T13:18:00.245Z,44.30
2022-12-04T13:20:31.812Z,39.38
2022-12-04T13:23:19.886Z,39.88
2022-12-04T13:26:03.290Z,39.85
2022-12-04T13:29:08.762Z,48.28
2022-12-04T13:31:49.240Z,38.72
2022-12-04T13:34:47.004Z,41.33
2022-12-04T13:37:30.024Z,42.47
2022-12-04T13:40:14.971Z,45.78
2022-12-04T13:45:23.078Z,40.90
2022-12-04T13:47:58.208Z,39.85
2022-12-04T13:50:36.274Z,52.15
2022-12-04T13:53:03.755Z,41.05
2022-12-04T13:55:39.089Z,42.63
2022-12-04T13:58:11.681Z,43.97
2022-12-04T14:00:42.368Z,36.78
2022-12-04T14:03:23.985Z,44.58
2022-12-04T14:05:51.160Z,41.80
2022-12-04T14:08:25.278Z,38.55
2022-12-04T14:11:02.638Z,42.60
2022-12-04T14:13:43.250Z,39.67
2022-12-04T14:16:21.842Z,44.10
2022-12-04T14:18:55.005Z,40.97
2022-12-04T14:21:22.386Z,43.28
2022-12-04T14:23:49.817Z,40.65
2022-12-04T14:27:09.609Z,37.83
2022-12-04T14:29:39.938Z,33.03
2022-12-04T14:32:13.792Z,39.30
2022-12-04T14:34:40.783Z,36.27
2022-12-04T14:37:17.228Z,39.40
2022-12-04T14:39:48.166Z,33.67
2022-12-04T14:42:25.295Z,39.10
2022-12-04T14:45:00.125Z,38.10
2022-12-04T14:47:48.159Z,36.63
2022-12-04T14:50:29.756Z,26.55
2022-12-04T14:53:10.752Z,40.08
2022-12-04T14:55:57.851Z,32.33
2022-12-04T14:58:35.465Z,31.67
2022-12-04T15:01:05.502Z,40.03
2022-12-04T15:03:36.478Z,46.50
2022-12-04T15:06:07.085Z,37.35
2022-12-04T15:08:34.311Z,31.73
2022-12-04T15:11:19.761Z,35.47
2022-12-04T15:13:46.684Z,34.30
2022-12-04T15:16:21.463Z,37.53
2022-12-04T15:19:00.050Z,43.30
2022-12-04T15:21:42.640Z,37.13
2022-12-04T15:24:11.243Z,33.80
2022-12-04T15:26:38.752Z,42.50
2022-12-04T15:29:07.498Z,39.70
2022-12-04T15:31:46.987Z,37.63
2022-12-04T15:34:17.970Z,34.13
2022-12-04T15:37:12.712Z,39.70
2022-12-04T15:39:40.038Z,35.47
2022-12-04T15:42:23.805Z,38.13
2022-12-04T15:45:00.924Z,36.85
2022-12-04T15:47:30.702Z,39.50
2022-12-04T15:50:15.730Z,40.35
2022-12-04T15:55:19.408Z,31.23
2022-12-04T15:57:53.832Z,39.75
2022-12-04T16:00:39.246Z,37.90
2022-12-04T16:03:39.464Z,35.65
2022-12-04T16:06:20.151Z,34.67
2022-12-04T16:09:19.012Z,43.88
2022-12-04T16:11:45.753Z,27.83
2022-12-04T16:14:12.763Z,41.00
2022-12-04T16:16:43.564Z,37.70
2022-12-04T16:19:28.222Z,33.55
2022-12-04T16:21:55.177Z,28.00
2022-12-04T16:24:22.317Z,33.60
2022-12-04T16:26:54.719Z,33.35
2022-12-04T16:29:22.565Z,41.45
2022-12-04T16:31:49.839Z,44.28
2022-12-04T16:34:16.797Z,41.25
2022-12-04T16:36:43.612Z,35.45
2022-12-04T16:39:10.289Z,44.22
2022-12-04T16:41:36.915Z,42.95
2022-12-04T16:44:03.738Z,41.35
2022-12-04T16:46:30.887Z,48.47
2022-12-04T16:49:01.475Z,56.13
2022-12-04T16:51:30.987Z,34.13
2022-12-04T16:53:57.646Z,42.17
2022-12-04T16:56:24.257Z,41.55
2022-12-04T16:58:51.096Z,49.78
2022-12-04T17:01:23.967Z,52.60
2022-12-04T17:03:52.622Z,49.70
2022-12-04T17:06:19.583Z,50.22
2022-12-04T17:08:46.425Z,42.08
2022-12-04T17:11:16.213Z,52.55
2022-12-04T17:13:43.287Z,45.92
2022-12-04T17:16:14.663Z,57.92
2022-12-04T17:18:44.903Z,56.72
2022-12-04T17:21:13.192Z,54.75
2022-12-04T17:23:40.686Z,52.03
2022-12-04T17:26:10.312Z,54.35
2022-12-04T17:28:37.305Z,50.42
2022-12-04T17:31:06.203Z,57.25
2022-12-04T17:33:33.883Z,60.78
2022-12-04T17:36:00.546Z,61.83
2022-12-04T17:38:27.967Z,66.00
2022-12-04T17:41:02.149Z,47.38
2022-12-04T17:43:29.973Z,51.63
2022-12-04T17:45:57.883Z,32.75
2022-12-04T17:48:25.187Z,54.95
2022-12-04T17:51:14.754Z,52.13
2022-12-04T17:53:41.772Z,56.45
2022-12-04T17:56:12.310Z,45.90
2022-12-04T17:58:39.674Z,54.10
2022-12-04T18:01:12.540Z,43.05
2022-12-04T18:03:39.579Z,58.10
2022-12-04T18:06:15.416Z,74.72
2022-12-04T18:08:46.677Z,48.40
2022-12-04T18:11:21.065Z,70.10
2022-12-04T18:14:04.906Z,65.82
2022-12-04T18:16:37.782Z,67.32
2022-12-04T18:19:04.895Z,69.90
2022-12-04T18:21:32.246Z,56.70
2022-12-04T18:24:02.582Z,71.53
2022-12-04T18:26:35.821Z,72.00
2022-12-04T18:29:02.932Z,58.30
2022-12-04T18:31:29.588Z,61.30
2022-12-04T18:33:57.898Z,70.75
2022-12-04T18:36:27.554Z,64.63
2022-12-04T18:39:05.876Z,60.75
2022-12-04T18:41:32.990Z,65.15
2022-12-04T18:44:00.279Z,62.28
2022-12-04T18:46:27.170Z,59.97
2022-12-04T18:48:55.699Z,68.93
2022-12-04T18:51:31.990Z,53.58
2022-12-04T18:54:01.539Z,65.53
2022-12-04T18:56:28.621Z,66.57
2022-12-04T18:59:00.805Z,66.35
2022-12-04T19:01:28.360Z,62.97
2022-12-04T19:03:57.430Z,72.38
2022-12-04T19:06:33.005Z,62.80
2022-12-04T19:09:01.686Z,65.68
2022-12-04T19:11:28.778Z,77.82
2022-12-04T19:13:55.935Z,73.72
2022-12-04T19:16:22.914Z,75.70
2022-12-04T19:18:49.701Z,63.70
2022-12-04T19:21:18.079Z,62.10
2022-12-04T19:23:55.007Z,68.72
2022-12-04T19:26:21.656Z,73.85
2022-12-04T19:28:48.631Z,66.90
2022-12-04T19:31:17.785Z,70.13
2022-12-04T19:33:44.668Z,63.70
2022-12-04T19:36:13.307Z,66.78
2022-12-04T19:38:40.514Z,65.60
2022-12-04T19:41:16.291Z,67.60
2022-12-04T19:43:49.860Z,72.20
2022-12-04T19:46:19.955Z,59.00
2022-12-04T19:48:48.865Z,67.32
2022-12-04T19:51:18.318Z,66.72
2022-12-04T19:53:46.530Z,61.63
2022-12-04T19:56:16.571Z,62.03
2022-12-04T19:58:43.963Z,54.83
2022-12-04T20:01:13.230Z,51.50
2022-12-04T20:03:40.043Z,61.58
2022-12-04T20:06:12.293Z,65.15
2022-12-04T20:08:41.868Z,59.20
2022-12-04T20:11:15.648Z,55.28
2022-12-04T20:13:43.812Z,59.23
2022-12-04T20:16:12.520Z,33.83
2022-12-04T20:18:40.522Z,69.47
2022-12-04T20:21:11.125Z,50.67
2022-12-04T20:23:43.310Z,58.53
2022-12-04T20:26:12.313Z,65.75
2022-12-04T20:28:39.399Z,58.65
2022-12-04T20:31:21.281Z,55.28
2022-12-04T20:33:50.379Z,56.88
2022-12-04T20:36:21.878Z,62.30
2022-12-04T20:38:49.956Z,61.25
2022-12-04T20:41:17.113Z,60.22
2022-12-04T20:43:44.304Z,53.90
2022-12-04T20:46:18.017Z,54.60
2022-12-04T20:48:48.881Z,57.00
2022-12-04T20:51:17.379Z,63.55
2022-12-04T20:53:45.192Z,60.65
2022-12-04T20:56:12.439Z,55.85
2022-12-04T20:58:40.154Z,53.85
2022-12-04T21:01:12.821Z,45.50
2022-12-04T21:03:40.410Z,54.97
2022-12-04T21:06:16.966Z,49.08
2022-12-04T21:08:56.811Z,35.63
2022-12-04T21:11:26.131Z,57.80
2022-12-04T21:14:13.056Z,56.28
2022-12-04T21:16:40.630Z,44.40
2022-12-04T21:19:09.374Z,48.40
2022-12-04T21:21:36.781Z,51.00
2022-12-04T21:24:05.018Z,53.20
2022-12-04T21:26:31.694Z,50.50
2022-12-04T21:28:58.570Z,52.15
2022-12-04T21:31:28.733Z,51.67
2022-12-04T21:33:56.253Z,50.88
2022-12-04T21:36:23.326Z,54.40
2022-12-04T21:38:49.982Z,55.72
2022-12-04T21:41:36.723Z,51.85
2022-12-04T21:44:12.243Z,51.20
2022-12-04T21:46:39.218Z,47.80
2022-12-04T21:49:06.542Z,54.70
2022-12-04T21:51:56.269Z,44.92
2022-12-04T21:54:22.179Z,46.90
2022-12-04T21:56:48.835Z,58.80
2022-12-04T21:59:15.373Z,45.17
2022-12-04T22:01:42.522Z,53.13
2022-12-04T22:04:09.342Z,53.08
2022-12-04T22:06:37.546Z,55.85
2022-12-04T22:09:07.959Z,57.08
2022-12-04T22:11:34.911Z,55.45
2022-12-04T22:14:01.942Z,56.03
2022-12-04T22:16:30.784Z,60.13
2022-12-04T22:18:59.019Z,47.65
2022-12-04T22:21:26.828Z,59.30
2022-12-04T22:23:57.856Z,60.75
2022-12-04T22:26:25.186Z,63.15
2022-12-04T22:28:52.103Z,62.80
2022-12-04T22:31:21.133Z,56.80
2022-12-04T22:33:49.327Z,71.43
2022-12-04T22:36:24.874Z,69.38
2022-12-04T22:39:10.219Z,63.78
2022-12-04T22:41:38.291Z,73.38
2022-12-04T22:44:05.506Z,59.88
2022-12-04T22:46:32.722Z,69.10
2022-12-04T22:48:59.987Z,72.15
2022-12-04T22:51:27.215Z,72.68
2022-12-04T22:53:57.134Z,73.82
2022-12-04T22:56:29.573Z,71.45
2022-12-04T22:58:57.785Z,72.85
2022-12-04T23:01:30.229Z,78.63
2022-12-04T23:03:57.487Z,78.97
2022-12-04T23:06:26.571Z,82.63
2022-12-04T23:08:58.591Z,81.38
2022-12-04T23:11:26.336Z,76.45
2022-12-04T23:13:59.961Z,97.32
2022-12-04T23:16:27.977Z,69.50
2022-12-04T23:18:54.649Z,78.32
2022-12-04T23:21:22.402Z,84.55
2022-12-04T23:23:50.611Z,88.22
2022-12-04T23:26:21.282Z,95.38
2022-12-04T23:28:48.204Z,91.72
2022-12-04T23:31:15.977Z,93.30
2022-12-04T23:33:42.882Z,78.93
2022-12-04T23:36:11.847Z,97.90
2022-12-04T23:38:39.798Z,82.43
2022-12-04T23:41:08.131Z,90.25
2022-12-04T23:43:35.850Z,91.70
2022-12-04T23:46:08.913Z,89.65
2022-12-04T23:48:37.702Z,72.72
2022-12-04T23:51:04.427Z,88.32
2022-12-04T23:53:31.016Z,94.32
2022-12-04T23:56:00.241Z,97.63
2022-12-04T23:58:27.001Z,77.95
